createdAt,value
2022-08-17T00:02:25.506Z,4.45
2022-08-17T00:04:53.862Z,4.00
2022-08-17T00:07:20.618Z,4.13
2022-08-17T00:09:47.292Z,4.00
2022-08-17T00:12:43.565Z,3.88
2022-08-17T00:15:01.340Z,4.53
2022-08-17T00:17:28.022Z,4.03
2022-08-17T00:19:54.701Z,4.05
2022-08-17T00:22:34.726Z,3.65
2022-08-17T00:25:07.208Z,3.45
2022-08-17T00:27:34.551Z,3.25
2022-08-17T00:30:01.263Z,3.47
2022-08-17T00:33:14.415Z,3.30
2022-08-17T00:35:18.394Z,3.78
2022-08-17T00:37:45.353Z,3.35
2022-08-17T00:40:14.417Z,3.45
2022-08-17T00:42:42.535Z,3.33
2022-08-17T00:45:12.398Z,3.60
2022-08-17T00:47:39.377Z,2.72
2022-08-17T00:50:10.284Z,3.53
2022-08-17T00:52:42.553Z,3.23
2022-08-17T00:55:09.495Z,3.90
2022-08-17T00:57:42.179Z,3.40
2022-08-17T01:00:21.414Z,3.35
2022-08-17T01:02:48.984Z,3.38
2022-08-17T01:05:19.969Z,3.80
2022-08-17T01:11:00.423Z,3.50
2022-08-17T01:13:05.258Z,3.17
2022-08-17T01:15:36.503Z,2.95
2022-08-17T01:18:05.511Z,3.22
2022-08-17T01:20:34.468Z,3.25
2022-08-17T01:23:20.485Z,3.42
2022-08-17T01:25:51.212Z,3.72
2022-08-17T01:28:52.404Z,3.40
2022-08-17T01:31:08.434Z,3.10
2022-08-17T01:33:35.836Z,3.83
2022-08-17T01:36:04.474Z,2.97
2022-08-17T01:38:31.950Z,3.50
2022-08-17T01:41:03.370Z,3.50
2022-08-17T01:43:44.057Z,3.50
2022-08-17T01:46:21.889Z,3.80
2022-08-17T01:48:48.661Z,3.30
2022-08-17T01:51:16.065Z,4.28
2022-08-17T01:53:48.489Z,3.70
2022-08-17T01:56:18.437Z,3.10
2022-08-17T01:58:45.785Z,3.22
2022-08-17T02:01:14.904Z,3.10
2022-08-17T02:03:42.352Z,3.97
2022-08-17T02:06:28.329Z,3.63
2022-08-17T02:09:02.245Z,3.47
2022-08-17T02:11:32.425Z,3.60
2022-08-17T02:14:03.167Z,3.10
2022-08-17T02:16:37.687Z,3.47
2022-08-17T02:19:11.030Z,3.53
2022-08-17T02:21:39.201Z,3.08
2022-08-17T02:24:59.931Z,3.50
2022-08-17T02:27:10.107Z,3.20
2022-08-17T02:29:37.288Z,3.03
2022-08-17T02:32:05.096Z,2.95
2022-08-17T02:34:32.470Z,3.20
2022-08-17T02:36:59.342Z,2.95
2022-08-17T02:39:26.004Z,2.97
2022-08-17T02:42:01.801Z,3.03
2022-08-17T02:44:39.211Z,3.38
2022-08-17T02:47:09.491Z,2.80
2022-08-17T02:49:36.652Z,3.25
2022-08-17T02:52:06.999Z,2.72
2022-08-17T02:54:40.210Z,2.47
2022-08-17T02:57:10.447Z,3.35
2022-08-17T02:59:39.023Z,2.80
2022-08-17T03:02:11.304Z,2.42
2022-08-17T03:04:38.481Z,2.63
2022-08-17T03:07:05.439Z,2.63
2022-08-17T03:09:32.880Z,2.78
2022-08-17T03:12:12.984Z,2.55
2022-08-17T03:14:43.415Z,2.83
2022-08-17T03:17:16.998Z,2.92
2022-08-17T03:19:44.971Z,2.50
2022-08-17T03:22:36.873Z,2.70
2022-08-17T03:24:58.512Z,3.72
2022-08-17T03:27:25.294Z,3.45
2022-08-17T03:29:51.973Z,3.00
2022-08-17T03:32:20.757Z,3.22
2022-08-17T03:34:47.502Z,2.95
2022-08-17T03:37:14.787Z,2.95
2022-08-17T03:39:41.478Z,3.00
2022-08-17T03:42:31.278Z,3.00
2022-08-17T03:45:00.380Z,3.10
2022-08-17T03:47:45.696Z,3.17
2022-08-17T03:50:32.466Z,3.40
2022-08-17T03:53:18.476Z,3.50
2022-08-17T03:56:03.478Z,3.75
2022-08-17T03:58:30.165Z,3.58
2022-08-17T04:00:56.966Z,3.58
2022-08-17T04:03:23.930Z,3.17
2022-08-17T04:05:50.610Z,3.28
2022-08-17T04:08:17.260Z,3.30
2022-08-17T04:10:45.151Z,3.10
2022-08-17T04:13:12.900Z,3.50
2022-08-17T04:15:40.238Z,3.42
2022-08-17T04:18:07.729Z,4.03
2022-08-17T04:20:38.064Z,3.13
2022-08-17T04:23:07.005Z,3.90
2022-08-17T04:25:36.457Z,3.30
2022-08-17T04:28:05.097Z,3.83
2022-08-17T04:30:37.909Z,3.55
2022-08-17T04:33:10.204Z,3.53
2022-08-17T04:35:43.163Z,3.50
2022-08-17T04:38:18.000Z,4.05
2022-08-17T04:41:03.914Z,3.30
2022-08-17T04:43:32.556Z,2.97
2022-08-17T04:46:04.935Z,3.80
2022-08-17T04:48:37.783Z,3.92
2022-08-17T04:51:09.852Z,3.70
2022-08-17T04:53:37.671Z,3.70
2022-08-17T04:56:05.297Z,3.25
2022-08-17T04:58:32.264Z,3.90
2022-08-17T05:00:59.081Z,3.70
2022-08-17T05:03:25.940Z,3.08
2022-08-17T05:05:53.787Z,3.60
2022-08-17T05:08:21.485Z,3.53
2022-08-17T05:10:49.447Z,3.28
2022-08-17T05:13:22.999Z,3.35
2022-08-17T05:15:54.896Z,3.70
2022-08-17T05:18:22.308Z,3.63
2022-08-17T05:20:51.350Z,3.67
2022-08-17T05:23:21.240Z,3.47
2022-08-17T05:25:50.847Z,3.78
2022-08-17T05:28:20.035Z,3.80
2022-08-17T05:30:51.599Z,3.17
2022-08-17T05:33:24.401Z,3.30
2022-08-17T05:35:53.138Z,3.85
2022-08-17T05:38:22.449Z,3.92
2022-08-17T05:40:49.549Z,4.00
2022-08-17T05:43:23.834Z,3.55
2022-08-17T05:45:56.592Z,3.97
2022-08-17T05:48:35.605Z,3.80
2022-08-17T05:51:22.979Z,3.60
2022-08-17T05:54:19.914Z,3.88
2022-08-17T05:56:56.878Z,4.28
2022-08-17T05:59:42.446Z,3.42
2022-08-17T06:02:18.230Z,3.50
2022-08-17T06:04:50.610Z,3.45
2022-08-17T06:07:35.152Z,4.10
2022-08-17T06:10:24.705Z,3.90
2022-08-17T06:13:08.476Z,3.28
2022-08-17T06:15:56.744Z,3.70
2022-08-17T06:18:28.725Z,3.75
2022-08-17T06:21:01.789Z,3.65
2022-08-17T06:23:54.189Z,3.80
2022-08-17T06:26:38.493Z,3.92
2022-08-17T06:29:31.052Z,4.30
2022-08-17T06:31:57.816Z,4.40
2022-08-17T06:34:24.682Z,3.83
2022-08-17T06:37:15.422Z,4.03
2022-08-17T06:40:08.677Z,3.85
2022-08-17T06:43:06.003Z,4.40
2022-08-17T06:46:01.792Z,3.80
2022-08-17T06:48:42.517Z,4.30
2022-08-17T06:51:28.021Z,3.85
2022-08-17T06:54:15.300Z,4.90
2022-08-17T06:56:53.033Z,4.20
2022-08-17T06:59:55.490Z,4.60
2022-08-17T07:02:53.007Z,4.20
2022-08-17T07:05:46.895Z,4.13
2022-08-17T07:08:35.161Z,4.53
2022-08-17T07:11:06.845Z,4.35
2022-08-17T07:13:43.983Z,4.25
2022-08-17T07:16:27.506Z,3.78
2022-08-17T07:18:56.786Z,4.30
2022-08-17T07:21:34.594Z,4.13
2022-08-17T07:24:30.233Z,4.28
2022-08-17T07:27:09.981Z,3.75
2022-08-17T07:29:49.562Z,3.95
2022-08-17T07:32:20.204Z,4.20
2022-08-17T07:35:19.904Z,4.47
2022-08-17T07:38:25.485Z,3.97
2022-08-17T07:40:57.675Z,4.03
2022-08-17T07:43:38.151Z,3.80
2022-08-17T07:46:38.483Z,4.22
2022-08-17T07:49:07.922Z,4.80
2022-08-17T07:51:39.713Z,3.70
2022-08-17T07:54:15.564Z,3.97
2022-08-17T07:56:49.887Z,4.20
2022-08-17T07:59:23.757Z,4.13
2022-08-17T08:01:57.603Z,3.55
2022-08-17T08:07:16.797Z,3.85
2022-08-17T08:09:46.966Z,3.45
2022-08-17T08:12:33.882Z,3.55
2022-08-17T08:15:33.365Z,3.83
2022-08-17T08:18:03.054Z,3.55
2022-08-17T08:20:53.366Z,3.85
2022-08-17T08:23:37.506Z,4.13
2022-08-17T08:26:36.087Z,4.03
2022-08-17T08:29:19.288Z,3.78
2022-08-17T08:32:02.191Z,3.38
2022-08-17T08:35:01.547Z,4.20
2022-08-17T08:37:42.012Z,3.63
2022-08-17T08:40:44.339Z,3.25
2022-08-17T08:43:32.206Z,3.25
2022-08-17T08:46:20.884Z,3.10
2022-08-17T08:49:14.387Z,4.10
2022-08-17T08:52:03.165Z,3.03
2022-08-17T08:54:47.613Z,2.72
2022-08-17T08:57:32.919Z,3.28
2022-08-17T09:00:13.091Z,3.10
2022-08-17T09:02:58.549Z,2.88
2022-08-17T09:05:49.909Z,3.78
2022-08-17T09:08:40.978Z,3.67
2022-08-17T09:11:31.235Z,3.63
2022-08-17T09:14:22.125Z,2.60
2022-08-17T09:17:24.181Z,3.05
2022-08-17T09:20:01.210Z,3.10
2022-08-17T09:22:37.176Z,3.15
2022-08-17T09:25:10.070Z,3.13
2022-08-17T09:28:03.945Z,3.35
2022-08-17T09:31:10.298Z,3.33
2022-08-17T09:33:47.064Z,3.30
2022-08-17T09:36:22.967Z,3.75
2022-08-17T09:39:15.114Z,3.05
2022-08-17T09:41:50.403Z,2.33
2022-08-17T09:44:41.567Z,2.47
2022-08-17T09:47:32.392Z,3.08
2022-08-17T09:51:04.173Z,2.95
2022-08-17T09:53:14.633Z,3.75
2022-08-17T09:55:52.017Z,3.30
2022-08-17T09:58:29.615Z,3.30
2022-08-17T10:01:29.459Z,2.70
2022-08-17T10:04:15.593Z,2.80
2022-08-17T10:07:19.957Z,2.80
2022-08-17T10:09:49.533Z,2.80
2022-08-17T10:12:34.558Z,2.40
2022-08-17T10:15:09.574Z,2.65
2022-08-17T10:18:07.492Z,2.97
2022-08-17T10:20:42.970Z,2.78
2022-08-17T10:23:46.807Z,2.38
2022-08-17T10:26:23.146Z,2.72
2022-08-17T10:28:55.851Z,3.03
2022-08-17T10:31:39.782Z,2.67
2022-08-17T10:34:12.373Z,2.35
2022-08-17T10:36:48.377Z,3.08
2022-08-17T10:39:21.144Z,2.78
2022-08-17T10:41:52.962Z,2.70
2022-08-17T10:44:48.392Z,3.08
2022-08-17T10:47:18.741Z,2.97
2022-08-17T10:49:54.037Z,2.70
2022-08-17T10:52:21.825Z,2.58
2022-08-17T10:55:11.185Z,2.60
2022-08-17T10:57:43.783Z,2.63
2022-08-17T11:00:15.930Z,3.00
2022-08-17T11:02:54.531Z,2.78
2022-08-17T11:05:24.118Z,2.45
2022-08-17T11:08:22.185Z,2.85
2022-08-17T11:11:10.785Z,2.60
2022-08-17T11:13:52.467Z,2.90
2022-08-17T11:16:53.284Z,2.40
2022-08-17T11:19:56.617Z,2.53
2022-08-17T11:22:44.668Z,2.75
2022-08-17T11:25:20.473Z,2.33
2022-08-17T11:27:53.670Z,2.35
2022-08-17T11:30:54.598Z,2.88
2022-08-17T11:33:56.911Z,2.55
2022-08-17T11:36:38.861Z,2.35
2022-08-17T11:39:26.243Z,2.72
2022-08-17T11:41:58.123Z,2.83
2022-08-17T11:44:56.410Z,2.90
2022-08-17T11:48:26.123Z,2.63
2022-08-17T11:51:18.164Z,2.35
2022-08-17T11:53:45.886Z,2.13
2022-08-17T11:56:35.711Z,2.40
2022-08-17T11:59:02.910Z,2.50
2022-08-17T12:01:32.129Z,2.13
2022-08-17T12:04:19.042Z,2.60
2022-08-17T12:06:52.234Z,2.60
2022-08-17T12:09:24.953Z,2.67
2022-08-17T12:12:25.102Z,2.20
2022-08-17T12:15:12.924Z,2.60
2022-08-17T12:17:42.876Z,2.30
2022-08-17T12:20:12.685Z,2.30
2022-08-17T12:23:01.144Z,2.45
2022-08-17T12:25:49.349Z,2.50
2022-08-17T12:28:32.644Z,2.90
2022-08-17T12:31:06.417Z,2.40
2022-08-17T12:33:35.985Z,2.47
2022-08-17T12:36:08.738Z,2.70
2022-08-17T12:38:37.996Z,2.20
2022-08-17T12:41:26.384Z,2.22
2022-08-17T12:43:58.659Z,2.08
2022-08-17T12:46:25.782Z,1.95
2022-08-17T12:48:59.267Z,2.40
2022-08-17T12:51:29.185Z,2.72
2022-08-17T12:53:56.477Z,2.83
2022-08-17T12:56:23.238Z,2.80
2022-08-17T12:58:54.129Z,2.58
2022-08-17T13:01:23.492Z,2.33
2022-08-17T13:03:54.271Z,2.58
2022-08-17T13:08:55.880Z,2.80
2022-08-17T13:11:24.942Z,2.28
2022-08-17T13:13:56.371Z,2.50
2022-08-17T13:16:30.715Z,2.25
2022-08-17T13:19:08.554Z,1.77
2022-08-17T13:21:37.937Z,2.60
2022-08-17T13:24:10.496Z,3.08
2022-08-17T13:26:49.616Z,2.40
2022-08-17T13:29:24.068Z,2.80
2022-08-17T13:32:02.730Z,2.70
2022-08-17T13:35:11.553Z,2.45
2022-08-17T13:37:34.364Z,2.30
2022-08-17T13:42:52.627Z,2.22
2022-08-17T13:45:34.938Z,2.80
2022-08-17T13:48:13.816Z,2.80
2022-08-17T13:51:07.380Z,2.60
2022-08-17T13:53:56.688Z,2.75
2022-08-17T13:56:38.443Z,2.78
2022-08-17T13:59:15.834Z,2.33
2022-08-17T14:01:50.951Z,2.58
2022-08-17T14:04:27.896Z,2.92
2022-08-17T14:07:00.596Z,2.50
2022-08-17T14:09:37.222Z,2.85
2022-08-17T14:12:09.271Z,2.83
2022-08-17T14:14:36.462Z,2.70
2022-08-17T14:17:03.611Z,2.67
2022-08-17T14:19:30.313Z,2.50
2022-08-17T14:21:59.085Z,2.50
2022-08-17T14:24:32.027Z,2.92
2022-08-17T14:27:00.358Z,2.92
2022-08-17T14:29:29.139Z,2.50
2022-08-17T14:31:57.461Z,3.05
2022-08-17T14:34:25.649Z,2.78
2022-08-17T14:36:52.462Z,2.83
2022-08-17T14:39:19.731Z,2.47
2022-08-17T14:41:46.484Z,2.92
2022-08-17T14:44:13.488Z,2.75
2022-08-17T14:46:45.163Z,2.42
2022-08-17T14:49:13.199Z,3.05
2022-08-17T14:51:43.721Z,3.05
2022-08-17T14:54:11.559Z,2.60
2022-08-17T14:57:11.552Z,2.95
2022-08-17T14:59:45.061Z,2.83
2022-08-17T15:02:12.415Z,2.78
2022-08-17T15:04:44.923Z,2.53
2022-08-17T15:07:12.470Z,2.85
2022-08-17T15:09:39.294Z,2.95
2022-08-17T15:12:08.936Z,2.80
2022-08-17T15:14:36.291Z,2.88
2022-08-17T15:17:03.857Z,3.05
2022-08-17T15:19:30.875Z,2.67
2022-08-17T15:21:57.600Z,3.08
2022-08-17T15:24:24.238Z,2.78
2022-08-17T15:26:51.563Z,2.90
2022-08-17T15:29:18.420Z,3.13
2022-08-17T15:31:45.198Z,3.05
2022-08-17T15:34:11.957Z,3.70
2022-08-17T15:36:38.918Z,3.00
2022-08-17T15:39:15.830Z,3.05
2022-08-17T15:41:47.348Z,3.92
2022-08-17T15:44:30.075Z,5.68
2022-08-17T15:46:59.216Z,4.72
2022-08-17T15:49:25.861Z,3.03
2022-08-17T15:51:52.483Z,2.92
2022-08-17T15:54:22.850Z,3.42
2022-08-17T15:56:50.317Z,3.13
2022-08-17T15:59:16.950Z,3.30
2022-08-17T16:02:33.627Z,4.13
2022-08-17T16:04:31.768Z,4.25
2022-08-17T16:06:59.666Z,3.85
2022-08-17T16:09:26.468Z,4.28
2022-08-17T16:12:14.464Z,4.43
2022-08-17T16:14:41.220Z,4.22
2022-08-17T16:17:39.052Z,4.00
2022-08-17T16:19:56.215Z,4.18
2022-08-17T16:22:37.638Z,3.80
2022-08-17T16:27:35.341Z,5.10
2022-08-17T16:30:02.314Z,3.95
2022-08-17T16:32:31.888Z,4.10
2022-08-17T16:35:11.280Z,4.38
2022-08-17T16:37:40.392Z,3.70
2022-08-17T16:40:13.854Z,3.65
2022-08-17T16:42:41.640Z,3.58
2022-08-17T16:45:13.842Z,3.72
2022-08-17T16:47:41.997Z,3.63
2022-08-17T16:50:14.066Z,3.70
2022-08-17T16:52:41.625Z,3.85
2022-08-17T16:55:10.525Z,4.20
2022-08-17T16:57:49.947Z,3.92
2022-08-17T17:00:19.406Z,4.00
2022-08-17T17:02:49.596Z,3.53
2022-08-17T17:05:43.546Z,3.50
2022-08-17T17:08:44.500Z,3.78
2022-08-17T17:11:19.384Z,3.78
2022-08-17T17:13:54.433Z,3.58
2022-08-17T17:16:47.088Z,3.50
2022-08-17T17:19:38.499Z,4.05
2022-08-17T17:22:26.766Z,4.28
2022-08-17T17:25:19.320Z,4.00
2022-08-17T17:28:00.875Z,4.18
2022-08-17T17:30:53.237Z,4.13
2022-08-17T17:33:25.091Z,4.32
2022-08-17T17:35:51.701Z,4.05
2022-08-17T17:38:29.470Z,4.90
2022-08-17T17:41:02.472Z,4.45
2022-08-17T17:43:40.182Z,4.45
2022-08-17T17:46:27.184Z,4.68
2022-08-17T17:48:56.839Z,4.47
2022-08-17T17:52:09.605Z,5.50
2022-08-17T17:55:15.814Z,4.45
2022-08-17T17:57:52.997Z,4.40
2022-08-17T18:00:30.395Z,4.60
2022-08-17T18:03:38.276Z,4.68
2022-08-17T18:06:14.999Z,4.28
2022-08-17T18:09:02.091Z,4.57
2022-08-17T18:12:10.688Z,3.90
2022-08-17T18:15:15.305Z,4.03
2022-08-17T18:18:10.737Z,4.20
2022-08-17T18:20:46.659Z,4.50
2022-08-17T18:23:27.634Z,3.85
2022-08-17T18:25:58.848Z,3.95
2022-08-17T18:28:41.407Z,4.53
2022-08-17T18:31:19.260Z,3.90
2022-08-17T18:33:52.858Z,3.60
2022-08-17T18:36:32.543Z,3.58
2022-08-17T18:39:18.349Z,4.40
2022-08-17T18:41:48.600Z,4.32
2022-08-17T18:44:37.834Z,4.45
2022-08-17T18:47:25.986Z,4.03
2022-08-17T18:49:57.808Z,4.90
2022-08-17T18:52:33.204Z,4.65
2022-08-17T18:54:59.854Z,4.63
2022-08-17T18:57:39.700Z,4.20
2022-08-17T19:00:19.308Z,4.15
2022-08-17T19:02:54.890Z,4.95
2022-08-17T19:05:41.058Z,4.85
2022-08-17T19:08:17.884Z,5.10
2022-08-17T19:10:47.399Z,5.25
2022-08-17T19:13:35.404Z,5.07
2022-08-17T19:16:15.057Z,5.63
2022-08-17T19:19:23.716Z,6.90
2022-08-17T19:21:56.244Z,6.90
2022-08-17T19:24:25.486Z,5.80
2022-08-17T19:27:41.825Z,5.13
2022-08-17T19:30:15.437Z,4.97
2022-08-17T19:32:42.585Z,4.55
2022-08-17T19:35:16.566Z,4.55
2022-08-17T19:38:19.293Z,4.20
2022-08-17T19:43:55.717Z,4.65
2022-08-17T19:46:35.599Z,4.35
2022-08-17T19:49:22.745Z,4.28
2022-08-17T19:52:37.583Z,4.03
2022-08-17T19:55:26.218Z,4.05
2022-08-17T19:58:11.233Z,4.72
2022-08-17T20:00:50.484Z,5.15
2022-08-17T20:03:29.926Z,4.90
2022-08-17T20:06:15.525Z,4.68
2022-08-17T20:08:55.368Z,4.90
2022-08-17T20:11:31.446Z,5.40
2022-08-17T20:14:01.048Z,4.60
2022-08-17T20:16:27.795Z,4.97
2022-08-17T20:19:08.544Z,4.65
2022-08-17T20:22:15.440Z,4.57
2022-08-17T20:24:51.062Z,4.63
2022-08-17T20:27:31.908Z,4.50
2022-08-17T20:29:58.716Z,3.97
2022-08-17T20:32:32.992Z,4.85
2022-08-17T20:35:07.753Z,3.90
2022-08-17T20:37:35.941Z,4.22
2022-08-17T20:40:05.795Z,4.95
2022-08-17T20:42:34.252Z,4.00
2022-08-17T20:45:25.110Z,4.70
2022-08-17T20:48:30.582Z,5.33
2022-08-17T20:50:51.864Z,4.90
2022-08-17T20:53:46.568Z,5.50
2022-08-17T20:56:45.239Z,5.35
2022-08-17T20:59:21.308Z,4.78
2022-08-17T21:02:12.425Z,5.80
2022-08-17T21:04:57.439Z,5.28
2022-08-17T21:07:42.739Z,4.95
2022-08-17T21:10:35.691Z,5.47
2022-08-17T21:13:10.232Z,5.13
2022-08-17T21:15:54.400Z,5.50
2022-08-17T21:18:55.067Z,4.97
2022-08-17T21:21:33.644Z,5.32
2022-08-17T21:24:17.719Z,6.03
2022-08-17T21:27:02.239Z,6.30
2022-08-17T21:29:34.091Z,5.50
2022-08-17T21:32:08.998Z,6.05
2022-08-17T21:35:15.604Z,5.65
2022-08-17T21:37:44.935Z,5.88
2022-08-17T21:40:18.650Z,5.35
2022-08-17T21:42:52.752Z,5.22
2022-08-17T21:45:38.128Z,5.82
2022-08-17T21:48:20.438Z,5.40
2022-08-17T21:51:08.989Z,5.45
2022-08-17T21:53:51.253Z,6.70
2022-08-17T21:56:41.762Z,6.35
2022-08-17T21:59:35.700Z,6.25
2022-08-17T22:02:19.878Z,6.90
2022-08-17T22:05:06.989Z,5.78
2022-08-17T22:08:02.250Z,6.50
2022-08-17T22:10:41.793Z,5.97
2022-08-17T22:13:17.028Z,6.65
2022-08-17T22:15:47.723Z,6.10
2022-08-17T22:18:20.379Z,6.88
2022-08-17T22:20:55.756Z,6.00
2022-08-17T22:23:50.004Z,5.63
2022-08-17T22:26:20.001Z,5.63
2022-08-17T22:28:57.564Z,6.60
2022-08-17T22:31:32.719Z,6.07
2022-08-17T22:34:02.384Z,6.30
2022-08-17T22:36:42.261Z,6.25
2022-08-17T22:39:11.596Z,6.82
2022-08-17T22:41:59.474Z,6.03
2022-08-17T22:44:32.054Z,5.90
2022-08-17T22:47:49.185Z,6.28
2022-08-17T22:50:26.039Z,6.22
2022-08-17T22:53:19.557Z,5.57
2022-08-17T22:56:15.489Z,5.57
2022-08-17T22:59:09.875Z,5.47
2022-08-17T23:01:39.240Z,5.68
2022-08-17T23:04:32.961Z,4.85
2022-08-17T23:07:00.714Z,4.95
2022-08-17T23:09:29.937Z,5.78
2022-08-17T23:11:58.721Z,5.03
2022-08-17T23:14:35.054Z,5.63
2022-08-17T23:17:03.339Z,5.47
2022-08-17T23:19:32.812Z,5.07
2022-08-17T23:22:04.282Z,4.93
2022-08-17T23:24:35.611Z,4.63
2022-08-17T23:27:09.869Z,4.93
2022-08-17T23:29:42.357Z,5.03
2022-08-17T23:32:17.707Z,4.88
2022-08-17T23:34:47.038Z,5.28
2022-08-17T23:37:15.771Z,4.82
2022-08-17T23:39:45.159Z,4.93
2022-08-17T23:42:16.512Z,5.00
2022-08-17T23:44:44.828Z,4.70
2022-08-17T23:47:12.592Z,4.97
2022-08-17T23:49:42.368Z,4.68
2022-08-17T23:52:16.516Z,5.32
2022-08-17T23:54:47.315Z,4.45
2022-08-17T23:57:20.117Z,4.50
